Estación Meteorológica Peña el Pijo (Robertgarden) [ 09/25/18 07:01:49 CEST ]

Fecha Hora Presion(HPa) Temp (°C) Humedad % Rocio (°C) Viento ( m/s) Direccion Lluvia 1Hora(mm) Lluvia 24H(mm) LLuvia Total(mm)
2018-May-29 01:01:54 1007.600 12.6 76 8.5         230.51
2018-May-29 02:01:36 1007.300 12.1 78 8.4         230.51
2018-May-29 03:01:44 1006.600 11.3 79 7.8         230.51
2018-May-29 04:01:44 1006.300 9.9 81 6.8         230.51
2018-May-29 05:01:41 1006.200 9.0 83 6.2         230.51
2018-May-29 06:01:41 1006.000 8.6 84 6.0         230.51
2018-May-29 07:01:43 1006.400 8.1 85 5.7         230.51
2018-May-29 08:02:08 1006.200 9.3 87 7.2         230.51
2018-May-29 09:01:54 1006.200 13.4 87 11.3         230.51
2018-May-29 10:01:45 1006.200 18.1 72 13.0 1.3 NNE     230.51
2018-May-29 11:01:41 1006.200 19.5 58 11.0 2.9 NNE     230.51
2018-May-29 12:01:37 1005.600 21.5 53 11.5         230.51
2018-May-29 13:01:52 1005.400 19.5 54 9.9         230.51
2018-May-29 14:01:46 1005.600 13.5 68 7.7     1.55 1.55 232.06
2018-May-29 15:02:07 1004.600 17.2 70 11.7       1.55 232.06
2018-May-29 16:01:56 1003.600 18.3 61 10.6       1.55 232.06
2018-May-29 17:01:45 1003.900 18.3 58 9.9       1.55 232.06
2018-May-29 18:01:43 1004.600 12.9 75 8.5     7.77 9.32 239.83
2018-May-29 19:02:05 1004.800 12.5 81 9.3     5.18 17.61 248.12
2018-May-29 20:01:42 1004.800 12.4 84 9.8     0.51 18.13 248.64
2018-May-29 21:01:55 1005.500 12.2 85 9.7     2.07 20.20 250.71
2018-May-29 22:01:50 1005.900 10.9 86 8.6     3.62 23.82 254.33
2018-May-29 23:01:56 1006.300 10.8 86 8.5     0.51 24.34 254.85

Temperatura Máxima:21°    Temperatura Mínima:
Presión Máxima:1007.600 Hpa    Presión Mínima:1003.600 Hpa


Volver